createdAt,value
2018-10-17T00:00:48.659Z,13.07
2018-10-17T00:03:17.140Z,12.40
2018-10-17T00:05:45.698Z,12.47
2018-10-17T00:08:14.175Z,11.30
2018-10-17T00:10:42.742Z,12.75
2018-10-17T00:13:11.372Z,11.55
2018-10-17T00:15:39.998Z,12.13
2018-10-17T00:18:08.494Z,11.78
2018-10-17T00:20:37.013Z,14.10
2018-10-17T00:23:05.936Z,13.38
2018-10-17T00:25:34.549Z,13.85
2018-10-17T00:28:03.284Z,13.00
2018-10-17T00:30:31.833Z,12.23
2018-10-17T00:33:00.372Z,12.18
2018-10-17T00:35:28.930Z,14.27
2018-10-17T00:37:57.476Z,11.95
2018-10-17T00:40:26.058Z,14.30
2018-10-17T00:42:55.171Z,13.10
2018-10-17T00:45:23.698Z,13.40
2018-10-17T00:47:52.239Z,12.13
2018-10-17T00:50:20.842Z,12.33
2018-10-17T00:52:49.424Z,12.35
2018-10-17T00:55:17.923Z,13.70
2018-10-17T00:57:46.512Z,13.45
2018-10-17T01:00:14.993Z,12.03
2018-10-17T01:02:43.514Z,14.15
2018-10-17T01:05:12.141Z,12.27
2018-10-17T01:07:40.577Z,13.98
2018-10-17T01:10:09.099Z,13.83
2018-10-17T01:12:37.614Z,12.47
2018-10-17T01:15:06.197Z,12.68
2018-10-17T01:17:34.772Z,13.78
2018-10-17T01:20:03.526Z,13.00
2018-10-17T01:22:32.185Z,13.48
2018-10-17T01:25:00.746Z,14.47
2018-10-17T01:27:29.262Z,13.62
2018-10-17T01:29:57.801Z,13.53
2018-10-17T01:32:26.335Z,14.38
2018-10-17T01:34:54.929Z,15.07
2018-10-17T01:37:23.397Z,13.90
2018-10-17T01:39:51.876Z,13.58
2018-10-17T01:42:20.417Z,13.93
2018-10-17T01:44:48.968Z,13.88
2018-10-17T01:47:17.474Z,12.75
2018-10-17T01:49:46.025Z,12.33
2018-10-17T01:52:14.490Z,12.93
2018-10-17T01:54:45.981Z,13.22
2018-10-17T01:57:14.467Z,13.35
2018-10-17T01:59:43.011Z,13.45
2018-10-17T02:02:12.683Z,12.40
2018-10-17T02:04:41.200Z,13.35
2018-10-17T02:07:09.908Z,12.63
2018-10-17T02:09:38.435Z,12.40
2018-10-17T02:12:07.022Z,12.60
2018-10-17T02:14:35.601Z,12.77
2018-10-17T02:17:04.232Z,12.82
2018-10-17T02:19:32.779Z,13.38
2018-10-17T02:22:01.321Z,12.78
2018-10-17T02:24:29.962Z,13.25
2018-10-17T02:26:58.618Z,12.55
2018-10-17T02:29:27.222Z,11.63
2018-10-17T02:31:55.734Z,13.05
2018-10-17T02:34:24.327Z,13.17
2018-10-17T02:36:53.050Z,12.85
2018-10-17T02:39:21.627Z,14.55
2018-10-17T02:41:50.163Z,12.73
2018-10-17T02:44:18.646Z,12.82
2018-10-17T02:46:47.507Z,12.57
2018-10-17T02:49:19.105Z,14.90
2018-10-17T02:51:47.611Z,14.40
2018-10-17T02:54:16.130Z,13.83
2018-10-17T02:56:44.639Z,14.73
2018-10-17T02:59:13.241Z,13.30
2018-10-17T03:01:41.758Z,13.80
2018-10-17T03:04:10.304Z,14.60
2018-10-17T03:06:38.837Z,13.53
2018-10-17T03:09:08.600Z,14.63
2018-10-17T03:11:37.208Z,14.68
2018-10-17T03:14:05.695Z,14.15
2018-10-17T03:16:34.227Z,13.65
2018-10-17T03:19:02.787Z,14.47
2018-10-17T03:21:31.295Z,13.10
2018-10-17T03:23:59.840Z,13.83
2018-10-17T03:26:28.344Z,14.47
2018-10-17T03:28:56.941Z,14.13
2018-10-17T03:31:25.553Z,13.13
2018-10-17T03:33:54.217Z,14.00
2018-10-17T03:36:22.812Z,13.08
2018-10-17T03:38:51.324Z,13.18
2018-10-17T03:41:19.934Z,13.05
2018-10-17T03:43:48.452Z,12.98
2018-10-17T03:46:17.030Z,12.45
2018-10-17T03:48:45.835Z,12.70
2018-10-17T03:51:14.520Z,12.60
2018-10-17T03:53:43.032Z,12.40
2018-10-17T03:56:11.656Z,13.70
2018-10-17T03:58:40.190Z,12.93
2018-10-17T04:01:08.762Z,14.35
2018-10-17T04:03:37.324Z,13.13
2018-10-17T04:06:06.218Z,13.90
2018-10-17T04:08:34.750Z,13.95
2018-10-17T04:11:03.677Z,13.97
2018-10-17T04:13:32.200Z,14.63
2018-10-17T04:16:00.730Z,13.88
2018-10-17T04:18:29.231Z,12.87
2018-10-17T04:20:57.716Z,14.28
2018-10-17T04:23:26.273Z,14.43
2018-10-17T04:25:54.804Z,14.60
2018-10-17T04:28:23.318Z,14.58
2018-10-17T04:30:52.177Z,14.90
2018-10-17T04:33:20.660Z,15.72
2018-10-17T04:35:49.253Z,14.78
2018-10-17T04:38:17.813Z,15.28
2018-10-17T04:40:46.406Z,14.58
2018-10-17T04:43:15.007Z,14.13
2018-10-17T04:45:43.547Z,14.87
2018-10-17T04:48:12.171Z,15.58
2018-10-17T04:50:40.724Z,15.13
2018-10-17T04:53:09.307Z,14.25
2018-10-17T04:55:37.832Z,14.58
2018-10-17T04:58:06.386Z,16.83
2018-10-17T05:00:34.891Z,14.83
2018-10-17T05:03:03.375Z,14.58
2018-10-17T05:05:31.899Z,15.08
2018-10-17T05:08:00.445Z,15.48
2018-10-17T05:10:28.999Z,13.72
2018-10-17T05:12:57.556Z,15.65
2018-10-17T05:15:26.209Z,16.07
2018-10-17T05:17:54.771Z,14.75
2018-10-17T05:20:23.356Z,14.43
2018-10-17T05:22:51.952Z,16.43
2018-10-17T05:25:20.511Z,14.85
2018-10-17T05:27:49.108Z,14.73
2018-10-17T05:30:17.695Z,14.60
2018-10-17T05:32:46.344Z,15.53
2018-10-17T05:35:14.916Z,15.20
2018-10-17T05:37:43.518Z,14.70
2018-10-17T05:40:12.128Z,15.00
2018-10-17T05:42:40.716Z,14.63
2018-10-17T05:45:09.464Z,15.03
2018-10-17T05:47:38.035Z,15.08
2018-10-17T05:50:06.624Z,14.60
2018-10-17T05:52:35.260Z,15.80
2018-10-17T05:55:03.969Z,15.80
2018-10-17T05:57:32.489Z,15.00
2018-10-17T06:00:01.028Z,16.20
2018-10-17T06:02:32.249Z,15.25
2018-10-17T06:05:00.874Z,14.50
2018-10-17T06:07:29.450Z,16.73
2018-10-17T06:09:58.040Z,17.48
2018-10-17T06:12:26.729Z,16.77
2018-10-17T06:14:55.357Z,15.00
2018-10-17T06:17:23.985Z,15.30
2018-10-17T06:19:52.533Z,15.58
2018-10-17T06:22:21.043Z,14.87
2018-10-17T06:24:49.724Z,15.15
2018-10-17T06:27:18.354Z,15.88
2018-10-17T06:29:46.912Z,15.55
2018-10-17T06:32:15.537Z,14.25
2018-10-17T06:37:43.426Z,16.00
2018-10-17T06:40:11.971Z,15.35
2018-10-17T06:42:40.587Z,15.15
2018-10-17T06:45:09.189Z,15.87
2018-10-17T06:47:37.708Z,16.32
2018-10-17T06:50:06.656Z,17.02
2018-10-17T06:52:35.220Z,16.48
2018-10-17T06:55:03.908Z,18.52
2018-10-17T06:57:32.409Z,16.57
2018-10-17T07:00:00.892Z,17.53
2018-10-17T07:02:29.417Z,20.32
2018-10-17T07:04:57.986Z,18.97
2018-10-17T07:07:26.507Z,20.72
2018-10-17T07:09:54.993Z,19.17
2018-10-17T07:12:23.557Z,18.73
2018-10-17T07:14:52.057Z,19.00
2018-10-17T07:17:20.620Z,19.52
2018-10-17T07:19:49.157Z,19.42
2018-10-17T07:22:17.660Z,18.92
2018-10-17T07:24:49.250Z,18.35
2018-10-17T07:27:17.778Z,18.23
2018-10-17T07:29:46.469Z,17.90
2018-10-17T07:32:14.918Z,20.95
2018-10-17T07:34:43.434Z,19.23
2018-10-17T07:37:12.065Z,19.55
2018-10-17T07:39:40.682Z,22.73
2018-10-17T07:42:09.312Z,20.88
2018-10-17T07:44:37.888Z,20.77
2018-10-17T07:47:06.570Z,20.23
2018-10-17T07:49:35.145Z,20.05
2018-10-17T07:52:03.666Z,20.70
2018-10-17T07:54:32.225Z,21.23
2018-10-17T07:57:00.762Z,20.30
2018-10-17T07:59:29.582Z,19.20
2018-10-17T08:01:58.109Z,20.00
2018-10-17T08:04:26.688Z,20.88
2018-10-17T08:06:55.414Z,19.48
2018-10-17T08:09:23.997Z,18.67
2018-10-17T08:11:52.627Z,18.60
2018-10-17T08:14:21.382Z,18.98
2018-10-17T08:16:49.983Z,19.52
2018-10-17T08:19:18.523Z,19.62
2018-10-17T08:21:47.108Z,20.08
2018-10-17T08:24:15.696Z,17.73
2018-10-17T08:26:44.223Z,17.27
2018-10-17T08:29:12.930Z,18.23
2018-10-17T08:31:41.486Z,17.03
2018-10-17T08:34:10.032Z,16.65
2018-10-17T08:36:38.780Z,17.15
2018-10-17T08:39:08.425Z,17.23
2018-10-17T08:41:37.022Z,15.27
2018-10-17T08:44:05.690Z,14.45
2018-10-17T08:46:34.448Z,14.40
2018-10-17T08:49:03.056Z,13.55
2018-10-17T08:51:31.635Z,14.70
2018-10-17T08:54:00.244Z,14.13
2018-10-17T08:56:28.793Z,13.40
2018-10-17T08:58:57.363Z,12.98
2018-10-17T09:01:25.943Z,11.88
2018-10-17T09:03:54.458Z,12.30
2018-10-17T09:06:23.006Z,11.88
2018-10-17T09:08:51.516Z,12.05
2018-10-17T09:11:20.006Z,11.78
2018-10-17T09:13:48.829Z,11.63
2018-10-17T09:16:17.545Z,12.60
2018-10-17T09:18:46.046Z,13.15
2018-10-17T09:21:14.884Z,10.83
2018-10-17T09:23:43.221Z,11.18
2018-10-17T09:26:11.755Z,12.00
2018-10-17T09:28:40.610Z,11.53
2018-10-17T09:31:09.163Z,11.00
2018-10-17T09:33:37.705Z,13.18
2018-10-17T09:36:07.039Z,12.87
2018-10-17T09:38:36.397Z,12.93
2018-10-17T09:41:05.641Z,12.75
2018-10-17T09:43:34.515Z,12.75
2018-10-17T09:46:03.308Z,11.57
2018-10-17T09:48:31.970Z,11.65
2018-10-17T09:51:00.699Z,11.73
2018-10-17T09:53:29.790Z,12.33
2018-10-17T09:55:58.418Z,11.57
2018-10-17T09:58:26.964Z,12.43
2018-10-17T10:01:00.959Z,11.08
2018-10-17T10:03:30.239Z,13.53
2018-10-17T10:06:00.232Z,10.17
2018-10-17T10:08:28.796Z,10.45
2018-10-17T10:10:57.470Z,11.55
2018-10-17T10:13:26.052Z,10.70
2018-10-17T10:15:54.668Z,11.05
2018-10-17T10:18:23.786Z,12.53
2018-10-17T10:20:52.355Z,11.15
2018-10-17T10:23:20.898Z,12.58
2018-10-17T10:25:49.627Z,10.28
2018-10-17T10:28:18.256Z,10.10
2018-10-17T10:30:46.709Z,9.77
2018-10-17T10:33:15.336Z,8.93
2018-10-17T10:35:43.850Z,9.43
2018-10-17T10:38:12.456Z,8.40
2018-10-17T10:40:41.154Z,8.68
2018-10-17T10:43:09.592Z,8.40
2018-10-17T10:45:38.178Z,8.40
2018-10-17T10:48:06.891Z,8.85
2018-10-17T10:50:35.382Z,8.53
2018-10-17T10:53:04.034Z,8.43
2018-10-17T10:55:32.506Z,9.05
2018-10-17T10:58:02.026Z,8.38
2018-10-17T11:00:30.662Z,7.45
2018-10-17T11:02:59.451Z,7.80
2018-10-17T11:05:28.280Z,8.05
2018-10-17T11:07:56.665Z,8.15
2018-10-17T11:10:25.292Z,8.13
2018-10-17T11:12:53.860Z,8.00
2018-10-17T11:15:22.634Z,8.03
2018-10-17T11:17:51.203Z,7.77
2018-10-17T11:20:19.799Z,7.97
2018-10-17T11:22:48.456Z,8.33
2018-10-17T11:25:17.069Z,7.45
2018-10-17T11:27:45.931Z,7.22
2018-10-17T11:30:14.557Z,7.85
2018-10-17T11:32:43.190Z,7.22
2018-10-17T11:35:11.922Z,7.47
2018-10-17T11:37:41.559Z,7.53
2018-10-17T11:40:10.315Z,6.80
2018-10-17T11:42:38.759Z,6.90
2018-10-17T11:45:07.711Z,7.55
2018-10-17T11:47:37.670Z,7.33
2018-10-17T11:50:07.898Z,7.00
2018-10-17T11:52:36.781Z,7.33
2018-10-17T11:55:06.136Z,6.50
2018-10-17T11:57:35.087Z,7.67
2018-10-17T12:00:04.062Z,7.05
2018-10-17T12:02:33.096Z,6.37
2018-10-17T12:05:01.916Z,7.12
2018-10-17T12:07:30.350Z,7.53
2018-10-17T12:09:58.962Z,6.53
2018-10-17T12:12:27.562Z,7.03
2018-10-17T12:14:56.146Z,6.15
2018-10-17T12:17:24.731Z,6.47
2018-10-17T12:19:53.349Z,6.67
2018-10-17T12:22:21.942Z,6.58
2018-10-17T12:24:51.789Z,7.33
2018-10-17T12:27:20.564Z,5.33
2018-10-17T12:29:49.116Z,6.05
2018-10-17T12:32:17.775Z,5.40
2018-10-17T12:34:46.432Z,5.45
2018-10-17T12:37:14.927Z,6.85
2018-10-17T12:40:14.584Z,7.60
2018-10-17T12:42:43.121Z,5.87
2018-10-17T12:45:11.770Z,6.37
2018-10-17T12:47:40.351Z,7.10
2018-10-17T12:50:09.690Z,6.45
2018-10-17T12:52:38.411Z,6.60
2018-10-17T12:55:07.518Z,5.87
2018-10-17T12:57:36.106Z,5.70
2018-10-17T13:00:04.928Z,5.25
2018-10-17T13:02:33.532Z,6.00
2018-10-17T13:05:02.148Z,6.85
2018-10-17T13:07:30.764Z,7.08
2018-10-17T13:09:59.668Z,6.90
2018-10-17T13:12:28.237Z,5.80
2018-10-17T13:14:56.853Z,6.95
2018-10-17T13:17:25.329Z,7.28
2018-10-17T13:19:53.825Z,6.28
2018-10-17T13:22:22.531Z,6.50
2018-10-17T13:24:51.058Z,8.10
2018-10-17T13:27:19.698Z,6.37
2018-10-17T13:29:48.705Z,6.83
2018-10-17T13:32:17.240Z,7.12
2018-10-17T13:34:46.030Z,5.08
2018-10-17T13:37:14.730Z,5.43
2018-10-17T13:39:43.293Z,6.28
2018-10-17T13:42:12.196Z,6.50
2018-10-17T13:44:40.872Z,6.53
2018-10-17T13:47:09.969Z,6.62
2018-10-17T13:49:38.810Z,6.70
2018-10-17T13:52:07.198Z,5.97
2018-10-17T13:54:35.815Z,8.20
2018-10-17T13:57:09.009Z,7.67
2018-10-17T13:59:37.625Z,6.22
2018-10-17T14:02:06.385Z,6.40
2018-10-17T14:04:35.821Z,5.95
2018-10-17T14:07:05.422Z,6.33
2018-10-17T14:09:34.585Z,5.83
2018-10-17T14:12:03.917Z,6.33
2018-10-17T14:14:32.926Z,5.37
2018-10-17T14:17:02.623Z,6.92
2018-10-17T14:19:31.721Z,7.00
2018-10-17T14:22:00.943Z,6.08
2018-10-17T14:24:30.058Z,7.43
2018-10-17T14:26:58.759Z,7.07
2018-10-17T14:29:27.411Z,7.67
2018-10-17T14:31:56.330Z,6.22
2018-10-17T14:34:24.911Z,6.00
2018-10-17T14:36:53.575Z,6.33
2018-10-17T14:39:22.168Z,7.08
2018-10-17T14:41:50.687Z,7.10
2018-10-17T14:44:19.219Z,8.95
2018-10-17T14:46:47.743Z,7.17
2018-10-17T14:49:16.436Z,9.60
2018-10-17T14:51:45.038Z,8.43
2018-10-17T14:54:14.164Z,8.43
2018-10-17T14:56:43.564Z,9.48
2018-10-17T14:59:12.781Z,7.35
2018-10-17T15:01:42.338Z,7.40
2018-10-17T15:04:11.730Z,9.18
2018-10-17T15:06:40.299Z,6.95
2018-10-17T15:09:09.647Z,7.43
2018-10-17T15:11:39.386Z,7.63
2018-10-17T15:14:07.895Z,7.85
2018-10-17T15:16:36.742Z,8.68
2018-10-17T15:19:05.817Z,7.83
2018-10-17T15:21:34.439Z,6.50
2018-10-17T15:24:03.074Z,7.10
2018-10-17T15:26:31.752Z,7.83
2018-10-17T15:29:00.323Z,7.70
2018-10-17T15:31:29.007Z,8.17
2018-10-17T15:33:57.667Z,7.22
2018-10-17T15:36:26.261Z,8.88
2018-10-17T15:38:55.616Z,8.00
2018-10-17T15:41:25.319Z,8.50
2018-10-17T15:43:54.318Z,7.83
2018-10-17T15:46:22.942Z,7.37
2018-10-17T15:48:51.514Z,9.90
2018-10-17T15:51:21.058Z,8.07
2018-10-17T15:53:49.589Z,7.80
2018-10-17T15:56:18.154Z,7.97
2018-10-17T15:58:46.733Z,8.98
2018-10-17T16:01:15.284Z,8.83
2018-10-17T16:03:44.462Z,9.60
2018-10-17T16:06:13.310Z,9.60
2018-10-17T16:08:41.833Z,8.43
2018-10-17T16:11:10.315Z,8.47
2018-10-17T16:13:38.855Z,9.55
2018-10-17T16:16:07.399Z,8.30
2018-10-17T16:18:35.956Z,9.80
2018-10-17T16:21:05.048Z,10.43
2018-10-17T16:23:33.850Z,9.23
2018-10-17T16:26:02.549Z,10.58
2018-10-17T16:28:32.360Z,9.50
2018-10-17T16:31:00.992Z,10.00
2018-10-17T16:33:29.550Z,11.07
2018-10-17T16:35:58.239Z,10.38
2018-10-17T16:38:26.783Z,9.55
2018-10-17T16:40:55.323Z,9.60
2018-10-17T16:43:23.993Z,11.22
2018-10-17T16:45:52.619Z,11.03
2018-10-17T16:48:21.783Z,11.65
2018-10-17T16:50:50.502Z,10.08
2018-10-17T16:53:19.050Z,11.83
2018-10-17T16:55:47.651Z,10.77
2018-10-17T16:58:16.330Z,10.75
2018-10-17T17:00:44.864Z,10.90
2018-10-17T17:03:13.421Z,12.82
2018-10-17T17:05:42.256Z,13.65
2018-10-17T17:08:10.827Z,12.37
2018-10-17T17:10:39.398Z,13.88
2018-10-17T17:13:07.851Z,12.73
2018-10-17T17:15:36.451Z,12.05
2018-10-17T17:18:05.076Z,15.10
2018-10-17T17:20:33.624Z,13.67
2018-10-17T17:23:02.197Z,15.23
2018-10-17T17:25:30.752Z,15.10
2018-10-17T17:27:59.249Z,16.40
2018-10-17T17:30:27.800Z,16.62
2018-10-17T17:32:56.573Z,14.45
2018-10-17T17:35:25.889Z,14.07
2018-10-17T17:37:54.820Z,14.18
2018-10-17T17:40:23.459Z,13.38
2018-10-17T17:42:51.974Z,14.65
2018-10-17T17:45:20.897Z,14.93
2018-10-17T17:47:49.519Z,15.40
2018-10-17T17:50:18.092Z,14.70
2018-10-17T17:52:46.636Z,13.22
2018-10-17T17:55:15.293Z,16.83
2018-10-17T17:57:43.942Z,14.38
2018-10-17T18:00:12.507Z,15.00
2018-10-17T18:02:41.067Z,17.02
2018-10-17T18:05:09.616Z,14.18
2018-10-17T18:07:38.475Z,16.73
2018-10-17T18:10:07.625Z,13.97
2018-10-17T18:12:36.233Z,15.43
2018-10-17T18:15:05.206Z,14.07
2018-10-17T18:17:33.741Z,15.85
2018-10-17T18:20:02.405Z,18.07
2018-10-17T18:22:31.106Z,16.48
2018-10-17T18:25:02.362Z,17.15
2018-10-17T18:27:30.926Z,17.90
2018-10-17T18:29:59.441Z,17.95
2018-10-17T18:32:27.988Z,18.87
2018-10-17T18:34:56.698Z,19.70
2018-10-17T18:37:25.332Z,22.40
2018-10-17T18:39:53.819Z,20.52
2018-10-17T18:42:22.393Z,22.52
2018-10-17T18:44:50.896Z,21.07
2018-10-17T18:47:19.573Z,20.20
2018-10-17T18:49:48.123Z,20.23
2018-10-17T18:52:16.684Z,21.90
2018-10-17T18:54:45.237Z,21.05
2018-10-17T18:57:13.840Z,19.75
2018-10-17T18:59:42.318Z,19.98
2018-10-17T19:02:10.870Z,21.68
2018-10-17T19:04:39.393Z,20.02
2018-10-17T19:07:08.755Z,20.53
2018-10-17T19:09:38.358Z,19.12
2018-10-17T19:12:07.139Z,20.75
2018-10-17T19:14:35.720Z,18.35
2018-10-17T19:17:04.793Z,22.13
2018-10-17T19:19:33.500Z,22.30
2018-10-17T19:22:02.436Z,20.10
2018-10-17T19:24:30.973Z,22.85
2018-10-17T19:26:59.598Z,20.43
2018-10-17T19:29:28.167Z,19.73
2018-10-17T19:31:56.767Z,22.10
2018-10-17T19:34:25.312Z,23.65
2018-10-17T19:36:53.892Z,21.10
2018-10-17T19:39:22.441Z,22.00
2018-10-17T19:41:51.008Z,21.55
2018-10-17T19:44:19.507Z,19.85
2018-10-17T19:46:48.069Z,24.20
2018-10-17T19:49:16.594Z,19.60
2018-10-17T19:51:45.239Z,21.95
2018-10-17T19:54:13.784Z,20.57
2018-10-17T19:56:42.403Z,22.37
2018-10-17T19:59:10.922Z,23.70
2018-10-17T20:01:39.536Z,21.57
2018-10-17T20:04:08.023Z,22.52
2018-10-17T20:06:36.611Z,23.77
2018-10-17T20:09:08.198Z,23.07
2018-10-17T20:11:36.857Z,24.35
2018-10-17T20:14:05.429Z,24.32
2018-10-17T20:16:33.991Z,22.65
2018-10-17T20:19:02.560Z,25.37
2018-10-17T20:21:31.195Z,23.80
2018-10-17T20:24:00.474Z,22.25
2018-10-17T20:26:29.007Z,22.80
2018-10-17T20:28:57.563Z,23.10
2018-10-17T20:31:26.176Z,24.45
2018-10-17T20:33:54.711Z,26.00
2018-10-17T20:36:23.408Z,23.18
2018-10-17T20:38:51.930Z,22.35
2018-10-17T20:41:20.540Z,22.85
2018-10-17T20:43:49.114Z,21.87
2018-10-17T20:46:17.648Z,24.40
2018-10-17T20:48:46.248Z,24.65
2018-10-17T20:51:14.798Z,23.12
2018-10-17T20:53:43.371Z,22.67
2018-10-17T20:56:11.996Z,25.17
2018-10-17T20:58:40.466Z,24.12
2018-10-17T21:01:09.010Z,23.12
2018-10-17T21:03:37.519Z,24.77
2018-10-17T21:06:06.242Z,24.55
2018-10-17T21:08:34.711Z,26.23
2018-10-17T21:11:03.316Z,24.87
2018-10-17T21:13:31.826Z,25.55
2018-10-17T21:16:00.370Z,25.97
2018-10-17T21:18:28.985Z,26.62
2018-10-17T21:20:57.451Z,28.57
2018-10-17T21:23:25.994Z,27.62
2018-10-17T21:25:54.514Z,29.00
2018-10-17T21:28:23.164Z,27.10
2018-10-17T21:30:51.707Z,25.85
2018-10-17T21:33:20.275Z,24.98
2018-10-17T21:35:48.879Z,24.25
2018-10-17T21:38:17.407Z,25.45
2018-10-17T21:40:45.945Z,25.48
2018-10-17T21:43:14.446Z,26.77
2018-10-17T21:45:43.027Z,26.05
2018-10-17T21:48:11.504Z,25.57
2018-10-17T21:50:40.068Z,26.45
2018-10-17T21:53:08.576Z,24.37
2018-10-17T21:55:37.129Z,23.20
2018-10-17T21:58:05.640Z,25.08
2018-10-17T22:00:34.225Z,22.87
2018-10-17T22:03:02.671Z,26.00
2018-10-17T22:05:31.236Z,24.55
2018-10-17T22:07:59.779Z,25.40
2018-10-17T22:10:28.262Z,25.57
2018-10-17T22:12:56.757Z,26.05
2018-10-17T22:15:25.449Z,25.40
2018-10-17T22:17:53.935Z,23.50
2018-10-17T22:20:22.496Z,24.82
2018-10-17T22:22:50.985Z,28.20
2018-10-17T22:25:19.509Z,28.15
2018-10-17T22:27:48.142Z,27.52
2018-10-17T22:30:16.641Z,27.27
2018-10-17T22:32:45.180Z,27.77
2018-10-17T22:35:13.911Z,27.85
2018-10-17T22:37:42.452Z,30.20
2018-10-17T22:40:10.962Z,31.12
2018-10-17T22:42:39.460Z,28.23
2018-10-17T22:45:07.973Z,29.60
2018-10-17T22:47:36.517Z,28.98
2018-10-17T22:50:06.397Z,29.48
2018-10-17T22:52:34.892Z,29.87
2018-10-17T22:55:03.524Z,29.67
2018-10-17T22:57:32.042Z,29.75
2018-10-17T23:00:00.607Z,31.07
2018-10-17T23:02:29.145Z,29.35
2018-10-17T23:05:00.540Z,29.52
2018-10-17T23:07:29.880Z,27.70
2018-10-17T23:09:58.375Z,26.97
2018-10-17T23:12:26.948Z,28.75
2018-10-17T23:14:55.480Z,30.12
2018-10-17T23:17:24.016Z,28.17
2018-10-17T23:19:52.517Z,29.93
2018-10-17T23:22:27.975Z,26.85
2018-10-17T23:24:56.491Z,27.93
2018-10-17T23:27:25.051Z,28.67
2018-10-17T23:29:53.556Z,30.00
2018-10-17T23:32:22.088Z,27.13
2018-10-17T23:34:50.589Z,28.57
2018-10-17T23:37:19.149Z,27.32
2018-10-17T23:39:47.609Z,28.37
2018-10-17T23:42:16.211Z,27.15
2018-10-17T23:44:44.683Z,28.37
2018-10-17T23:47:13.189Z,30.45
2018-10-17T23:49:41.734Z,27.17
2018-10-17T23:52:10.222Z,29.42
2018-10-17T23:54:38.786Z,28.17
2018-10-17T23:57:07.347Z,26.77
2018-10-17T23:59:35.832Z,30.45
